createdAt,value
2022-12-01T00:01:41.523Z,37.47
2022-12-01T00:04:10.172Z,32.63
2022-12-01T00:06:40.233Z,29.07
2022-12-01T00:09:30.363Z,34.97
2022-12-01T00:11:59.046Z,33.10
2022-12-01T00:14:27.806Z,35.60
2022-12-01T00:16:56.390Z,35.67
2022-12-01T00:19:26.358Z,36.27
2022-12-01T00:21:56.313Z,39.17
2022-12-01T00:24:25.376Z,31.13
2022-12-01T00:26:53.902Z,37.13
2022-12-01T00:29:22.418Z,35.67
2022-12-01T00:31:51.537Z,31.37
2022-12-01T00:34:25.305Z,37.43
2022-12-01T00:36:55.889Z,33.92
2022-12-01T00:39:24.639Z,36.78
2022-12-01T00:41:53.161Z,37.00
2022-12-01T00:44:21.793Z,38.45
2022-12-01T00:46:50.343Z,35.42
2022-12-01T00:49:18.952Z,37.58
2022-12-01T00:51:47.471Z,36.10
2022-12-01T00:54:17.330Z,41.00
2022-12-01T00:56:45.936Z,38.17
2022-12-01T00:59:14.591Z,42.08
2022-12-01T01:01:43.197Z,43.10
2022-12-01T01:04:11.749Z,33.60
2022-12-01T01:06:40.233Z,36.20
2022-12-01T01:09:09.090Z,37.15
2022-12-01T01:11:39.545Z,35.23
2022-12-01T01:14:09.883Z,41.65
2022-12-01T01:16:38.521Z,36.28
2022-12-01T01:19:07.173Z,39.93
2022-12-01T01:21:35.759Z,37.65
2022-12-01T01:24:04.605Z,37.37
2022-12-01T01:26:35.504Z,44.13
2022-12-01T01:29:07.728Z,48.58
2022-12-01T01:31:37.645Z,44.70
2022-12-01T01:34:06.634Z,42.37
2022-12-01T01:36:35.373Z,42.37
2022-12-01T01:39:04.135Z,39.73
2022-12-01T01:41:32.672Z,42.60
2022-12-01T01:44:04.958Z,38.73
2022-12-01T01:46:35.551Z,37.10
2022-12-01T01:49:08.864Z,41.58
2022-12-01T01:51:42.139Z,39.70
2022-12-01T01:54:19.021Z,41.95
2022-12-01T01:56:50.476Z,40.88
2022-12-01T01:59:27.125Z,43.10
2022-12-01T02:02:06.119Z,45.50
2022-12-01T02:04:42.635Z,50.53
2022-12-01T02:07:13.896Z,45.50
2022-12-01T02:09:42.513Z,40.33
2022-12-01T02:12:32.810Z,42.65
2022-12-01T02:15:20.325Z,40.37
2022-12-01T02:18:03.275Z,42.33
2022-12-01T02:21:11.960Z,36.13
2022-12-01T02:24:31.993Z,50.27
2022-12-01T02:27:08.330Z,39.83
2022-12-01T02:30:10.533Z,41.33
2022-12-01T02:32:51.386Z,46.15
2022-12-01T02:35:31.954Z,41.38
2022-12-01T02:38:15.593Z,45.22
2022-12-01T02:40:53.282Z,44.30
2022-12-01T02:43:32.778Z,42.20
2022-12-01T02:46:12.857Z,51.00
2022-12-01T02:48:54.346Z,53.40
2022-12-01T02:51:29.120Z,45.97
2022-12-01T02:54:00.897Z,47.20
2022-12-01T02:56:29.587Z,46.30
2022-12-01T02:58:58.114Z,46.58
2022-12-01T03:01:47.246Z,47.20
2022-12-01T03:04:45.530Z,41.58
2022-12-01T03:07:46.847Z,43.30
2022-12-01T03:10:25.707Z,45.70
2022-12-01T03:13:21.263Z,51.85
2022-12-01T03:16:02.204Z,54.08
2022-12-01T03:18:38.921Z,44.75
2022-12-01T03:21:15.922Z,52.83
2022-12-01T03:23:51.507Z,51.45
2022-12-01T03:26:24.769Z,45.20
2022-12-01T03:29:01.437Z,49.78
2022-12-01T03:31:36.523Z,40.22
2022-12-01T03:34:13.939Z,51.40
2022-12-01T03:36:50.493Z,50.23
2022-12-01T03:39:26.874Z,47.00
2022-12-01T03:42:01.608Z,47.15
2022-12-01T03:44:38.460Z,50.50
2022-12-01T03:47:11.889Z,44.03
2022-12-01T03:49:42.859Z,43.70
2022-12-01T03:52:32.634Z,53.53
2022-12-01T03:55:13.032Z,51.35
2022-12-01T03:57:49.372Z,49.83
2022-12-01T04:00:20.261Z,49.95
2022-12-01T04:02:49.164Z,50.10
2022-12-01T04:05:22.473Z,53.47
2022-12-01T04:07:55.387Z,41.37
2022-12-01T04:10:24.331Z,43.97
2022-12-01T04:12:58.768Z,46.50
2022-12-01T04:15:28.763Z,42.33
2022-12-01T04:17:57.491Z,51.50
2022-12-01T04:20:26.039Z,45.95
2022-12-01T04:22:56.037Z,46.97
2022-12-01T04:25:24.530Z,49.13
2022-12-01T04:27:53.087Z,49.35
2022-12-01T04:30:21.725Z,51.50
2022-12-01T04:32:50.278Z,46.60
2022-12-01T04:35:19.051Z,56.08
2022-12-01T04:37:47.629Z,47.80
2022-12-01T04:40:18.991Z,52.00
2022-12-01T04:42:47.607Z,52.85
2022-12-01T04:45:16.403Z,48.50
2022-12-01T04:47:44.905Z,44.17
2022-12-01T04:50:13.642Z,48.78
2022-12-01T04:52:42.223Z,48.22
2022-12-01T04:55:11.606Z,46.57
2022-12-01T04:57:41.520Z,48.22
2022-12-01T05:00:13.314Z,53.90
2022-12-01T05:02:43.908Z,48.93
2022-12-01T05:05:14.235Z,50.42
2022-12-01T05:07:42.986Z,48.50
2022-12-01T05:10:14.232Z,49.57
2022-12-01T05:12:44.309Z,49.53
2022-12-01T05:15:13.365Z,46.92
2022-12-01T05:17:42.235Z,49.60
2022-12-01T05:20:37.962Z,55.27
2022-12-01T05:23:08.233Z,48.57
2022-12-01T05:25:39.609Z,43.80
2022-12-01T05:28:09.604Z,43.83
2022-12-01T05:30:38.139Z,47.65
2022-12-01T05:33:06.655Z,54.35
2022-12-01T05:35:35.569Z,47.95
2022-12-01T05:38:08.050Z,50.50
2022-12-01T05:40:37.340Z,47.40
2022-12-01T05:43:06.726Z,49.17
2022-12-01T05:45:36.822Z,47.73
2022-12-01T05:48:05.827Z,50.95
2022-12-01T05:50:34.394Z,53.10
2022-12-01T05:53:02.926Z,52.87
2022-12-01T05:55:35.378Z,52.75
2022-12-01T05:58:04.438Z,47.40
2022-12-01T06:00:33.151Z,52.05
2022-12-01T06:03:03.546Z,55.15
2022-12-01T06:05:35.151Z,56.42
2022-12-01T06:08:04.454Z,48.00
2022-12-01T06:10:33.097Z,51.13
2022-12-01T06:13:04.166Z,52.40
2022-12-01T06:15:32.732Z,55.75
2022-12-01T06:18:03.246Z,51.28
2022-12-01T06:20:32.012Z,51.80
2022-12-01T06:23:00.951Z,62.08
2022-12-01T06:25:31.960Z,55.70
2022-12-01T06:28:00.952Z,51.97
2022-12-01T06:30:29.735Z,63.65
2022-12-01T06:32:58.341Z,55.00
2022-12-01T06:35:28.304Z,64.13
2022-12-01T06:37:57.061Z,52.13
2022-12-01T06:40:26.016Z,78.63
2022-12-01T06:42:54.698Z,59.17
2022-12-01T06:45:23.580Z,56.30
2022-12-01T06:47:55.045Z,55.10
2022-12-01T06:50:24.455Z,55.58
2022-12-01T06:52:54.617Z,50.38
2022-12-01T06:55:23.222Z,55.47
2022-12-01T06:57:51.975Z,57.08
2022-12-01T07:00:21.918Z,62.75
2022-12-01T07:02:50.517Z,56.78
2022-12-01T07:05:19.294Z,58.13
2022-12-01T07:07:48.275Z,62.55
2022-12-01T07:10:18.397Z,63.60
2022-12-01T07:12:46.898Z,51.30
2022-12-01T07:15:15.468Z,61.20
2022-12-01T07:17:44.062Z,62.00
2022-12-01T07:20:14.186Z,47.50
2022-12-01T07:22:44.004Z,53.03
2022-12-01T07:25:12.717Z,57.73
2022-12-01T07:27:42.577Z,53.28
2022-12-01T07:30:11.864Z,55.33
2022-12-01T07:32:41.423Z,62.97
2022-12-01T07:35:10.581Z,68.50
2022-12-01T07:37:40.757Z,54.30
2022-12-01T07:40:14.514Z,61.03
2022-12-01T07:42:44.633Z,87.13
2022-12-01T07:45:14.349Z,59.93
2022-12-01T07:47:44.549Z,56.57
2022-12-01T07:50:13.650Z,62.67
2022-12-01T07:52:42.223Z,65.37
2022-12-01T07:55:10.967Z,58.97
2022-12-01T07:57:39.779Z,54.07
2022-12-01T08:00:11.486Z,55.13
2022-12-01T08:02:43.513Z,56.93
2022-12-01T08:05:12.049Z,49.10
2022-12-01T08:07:40.725Z,55.57
2022-12-01T08:10:10.849Z,53.80
2022-12-01T08:12:39.468Z,44.53
2022-12-01T08:15:11.326Z,46.77
2022-12-01T08:17:40.010Z,53.47
2022-12-01T08:20:10.068Z,46.93
2022-12-01T08:22:39.310Z,50.97
2022-12-01T08:25:09.254Z,42.90
2022-12-01T08:27:38.233Z,42.13
2022-12-01T08:30:11.827Z,43.27
2022-12-01T08:32:40.361Z,48.63
2022-12-01T08:35:10.249Z,45.80
2022-12-01T08:37:38.881Z,41.97
2022-12-01T08:40:10.400Z,50.40
2022-12-01T08:42:39.830Z,48.33
2022-12-01T08:45:11.764Z,49.90
2022-12-01T08:47:41.386Z,44.93
2022-12-01T08:50:11.200Z,41.07
2022-12-01T08:52:39.867Z,44.30
2022-12-01T08:55:10.578Z,55.60
2022-12-01T08:57:39.290Z,44.77
2022-12-01T09:00:11.836Z,47.37
2022-12-01T09:02:41.405Z,40.10
2022-12-01T09:05:10.655Z,46.93
2022-12-01T09:07:39.360Z,47.30
2022-12-01T09:10:10.181Z,39.00
2022-12-01T09:12:40.708Z,44.43
2022-12-01T09:15:12.072Z,44.10
2022-12-01T09:17:41.140Z,37.00
2022-12-01T09:20:11.640Z,42.03
2022-12-01T09:22:40.279Z,37.40
2022-12-01T09:25:14.710Z,35.90
2022-12-01T09:27:43.414Z,38.40
2022-12-01T09:30:14.602Z,38.33
2022-12-01T09:32:43.149Z,46.47
2022-12-01T09:35:11.721Z,38.63
2022-12-01T09:37:40.463Z,36.33
2022-12-01T09:40:15.998Z,36.63
2022-12-01T09:42:47.960Z,38.40
2022-12-01T09:45:28.042Z,40.90
2022-12-01T09:48:01.865Z,35.70
2022-12-01T09:50:32.561Z,39.77
2022-12-01T09:53:07.663Z,35.40
2022-12-01T09:55:37.025Z,33.03
2022-12-01T09:58:18.609Z,35.60
2022-12-01T10:00:51.890Z,35.70
2022-12-01T10:03:35.987Z,35.10
2022-12-01T10:06:30.503Z,32.33
2022-12-01T10:09:15.924Z,41.23
2022-12-01T10:11:47.747Z,36.97
2022-12-01T10:14:20.769Z,34.17
2022-12-01T10:17:04.644Z,41.30
2022-12-01T10:19:43.835Z,38.87
2022-12-01T10:22:44.109Z,41.53
2022-12-01T10:25:23.827Z,36.50
2022-12-01T10:28:20.086Z,40.37
2022-12-01T10:30:52.722Z,32.30
2022-12-01T10:33:26.813Z,37.53
2022-12-01T10:35:55.768Z,36.07
2022-12-01T10:38:31.287Z,43.03
2022-12-01T10:41:03.714Z,39.57
2022-12-01T10:43:40.370Z,40.03
2022-12-01T10:46:24.540Z,42.80
2022-12-01T10:48:58.597Z,40.20
2022-12-01T10:51:29.458Z,36.17
2022-12-01T10:54:11.418Z,47.90
2022-12-01T10:56:43.799Z,36.37
2022-12-01T10:59:30.435Z,38.90
2022-12-01T11:02:01.549Z,37.33
2022-12-01T11:04:45.631Z,35.40
2022-12-01T11:07:24.981Z,36.53
2022-12-01T11:10:19.582Z,36.23
2022-12-01T11:12:57.312Z,42.23
2022-12-01T11:15:29.917Z,40.80
2022-12-01T11:18:01.712Z,39.70
2022-12-01T11:20:54.814Z,42.10
2022-12-01T11:23:30.047Z,36.90
2022-12-01T11:26:07.566Z,37.27
2022-12-01T11:28:41.035Z,42.43
2022-12-01T11:31:12.659Z,39.30
2022-12-01T11:33:50.029Z,44.57
2022-12-01T11:36:39.567Z,43.00
2022-12-01T11:39:08.311Z,41.13
2022-12-01T11:41:42.692Z,39.60
2022-12-01T11:47:23.576Z,38.03
2022-12-01T11:50:01.525Z,38.90
2022-12-01T11:52:36.998Z,37.87
2022-12-01T11:55:23.215Z,44.00
2022-12-01T11:57:57.151Z,41.77
2022-12-01T12:00:29.931Z,35.10
2022-12-01T12:03:21.311Z,39.73
2022-12-01T12:06:39.628Z,36.37
2022-12-01T12:09:33.303Z,46.80
2022-12-01T12:12:22.665Z,37.63
2022-12-01T12:15:07.017Z,37.83
2022-12-01T12:18:16.709Z,38.13
2022-12-01T12:21:03.612Z,37.87
2022-12-01T12:24:29.154Z,39.60
2022-12-01T12:27:12.767Z,42.27
2022-12-01T12:30:06.988Z,32.90
2022-12-01T12:33:46.269Z,38.77
2022-12-01T12:36:31.251Z,40.20
2022-12-01T12:39:22.323Z,36.23
2022-12-01T12:41:56.348Z,33.10
2022-12-01T12:44:49.788Z,28.33
2022-12-01T12:47:38.709Z,28.13
2022-12-01T12:50:28.528Z,34.83
2022-12-01T12:53:03.606Z,40.43
2022-12-01T12:55:39.656Z,36.43
2022-12-01T12:58:17.013Z,35.10
2022-12-01T13:00:53.129Z,28.47
2022-12-01T13:03:38.664Z,35.77
2022-12-01T13:06:15.906Z,31.97
2022-12-01T13:08:51.086Z,31.60
2022-12-01T13:11:25.791Z,30.80
2022-12-01T13:14:04.167Z,38.13
2022-12-01T13:16:41.223Z,35.50
2022-12-01T13:19:17.786Z,30.83
2022-12-01T13:21:50.606Z,37.80
2022-12-01T13:24:25.021Z,33.67
2022-12-01T13:27:01.109Z,33.50
2022-12-01T13:29:40.986Z,32.90
2022-12-01T13:32:32.699Z,29.77
2022-12-01T13:35:27.547Z,31.60
2022-12-01T13:38:14.071Z,31.30
2022-12-01T13:40:42.721Z,32.23
2022-12-01T13:43:21.001Z,28.73
2022-12-01T13:45:52.591Z,27.27
2022-12-01T13:48:50.123Z,35.40
2022-12-01T13:51:18.930Z,31.23
2022-12-01T13:54:06.929Z,32.07
2022-12-01T13:56:47.739Z,33.33
2022-12-01T14:00:23.400Z,28.43
2022-12-01T14:03:40.825Z,27.23
2022-12-01T14:06:26.081Z,31.33
2022-12-01T14:09:01.063Z,28.47
2022-12-01T14:11:31.870Z,33.93
2022-12-01T14:14:13.342Z,35.47
2022-12-01T14:16:49.051Z,31.00
2022-12-01T14:19:35.439Z,28.27
2022-12-01T14:22:07.737Z,30.93
2022-12-01T14:24:40.314Z,30.03
2022-12-01T14:27:12.138Z,35.50
2022-12-01T14:29:43.342Z,32.50
2022-12-01T14:32:24.098Z,27.70
2022-12-01T14:35:11.395Z,30.37
2022-12-01T14:37:49.903Z,27.77
2022-12-01T14:40:31.834Z,27.00
2022-12-01T14:43:20.581Z,28.00
2022-12-01T14:46:02.674Z,25.23
2022-12-01T14:48:41.920Z,28.13
2022-12-01T14:51:37.303Z,26.50
2022-12-01T14:54:19.133Z,29.40
2022-12-01T14:56:52.422Z,26.80
2022-12-01T14:59:24.627Z,27.00
2022-12-01T15:01:58.124Z,32.93
2022-12-01T15:04:27.206Z,27.90
2022-12-01T15:06:58.584Z,25.50
2022-12-01T15:09:35.498Z,27.63
2022-12-01T15:12:08.023Z,26.50
2022-12-01T15:14:39.497Z,24.43
2022-12-01T15:17:09.163Z,25.47
2022-12-01T15:19:41.186Z,27.40
2022-12-01T15:22:18.463Z,27.90
2022-12-01T15:24:47.780Z,26.63
2022-12-01T15:27:28.700Z,27.40
2022-12-01T15:30:03.292Z,29.83
2022-12-01T15:32:37.954Z,29.40
2022-12-01T15:35:22.489Z,27.33
2022-12-01T15:37:53.621Z,26.70
2022-12-01T15:43:19.572Z,30.93
2022-12-01T15:45:55.316Z,29.10
2022-12-01T15:48:32.461Z,26.93
2022-12-01T15:51:11.951Z,32.83
2022-12-01T15:53:49.163Z,30.30
2022-12-01T15:56:26.247Z,33.30
2022-12-01T15:59:04.214Z,41.73
2022-12-01T16:01:33.914Z,30.20
2022-12-01T16:04:06.577Z,35.43
2022-12-01T16:06:40.105Z,40.07
2022-12-01T16:09:26.023Z,32.90
2022-12-01T16:12:25.057Z,31.00
2022-12-01T16:14:58.197Z,35.03
2022-12-01T16:17:29.704Z,54.07
2022-12-01T16:20:22.378Z,34.60
2022-12-01T16:22:58.888Z,36.05
2022-12-01T16:25:37.155Z,41.67
2022-12-01T16:28:08.630Z,40.57
2022-12-01T16:30:40.386Z,42.70
2022-12-01T16:33:20.487Z,42.20
2022-12-01T16:35:49.692Z,37.67
2022-12-01T16:38:22.494Z,45.40
2022-12-01T16:40:55.876Z,37.60
2022-12-01T16:43:27.335Z,34.30
2022-12-01T16:46:03.293Z,38.33
2022-12-01T16:48:34.949Z,41.10
2022-12-01T16:51:07.457Z,43.17
2022-12-01T16:53:36.202Z,40.30
2022-12-01T16:56:07.063Z,41.37
2022-12-01T16:58:35.702Z,41.40
2022-12-01T17:01:06.468Z,41.37
2022-12-01T17:03:38.524Z,47.90
2022-12-01T17:06:10.265Z,38.40
2022-12-01T17:08:39.055Z,46.07
2022-12-01T17:11:09.193Z,40.33
2022-12-01T17:13:38.408Z,41.97
2022-12-01T17:16:16.722Z,40.10
2022-12-01T17:18:50.170Z,44.00
2022-12-01T17:21:19.803Z,41.97
2022-12-01T17:23:48.629Z,40.10
2022-12-01T17:26:21.270Z,40.20
2022-12-01T17:28:50.583Z,44.33
2022-12-01T17:31:19.249Z,43.93
2022-12-01T17:33:48.087Z,43.03
2022-12-01T17:36:17.872Z,44.33
2022-12-01T17:38:48.176Z,41.50
2022-12-01T17:41:21.859Z,42.17
2022-12-01T17:43:50.764Z,40.40
2022-12-01T17:46:19.770Z,47.00
2022-12-01T17:48:49.845Z,38.23
2022-12-01T17:51:18.506Z,43.90
2022-12-01T17:53:47.088Z,41.70
2022-12-01T17:56:19.193Z,36.73
2022-12-01T17:58:56.481Z,37.97
2022-12-01T18:01:30.177Z,44.67
2022-12-01T18:03:59.404Z,38.60
2022-12-01T18:06:28.560Z,37.77
2022-12-01T18:08:57.599Z,34.10
2022-12-01T18:11:28.227Z,33.97
2022-12-01T18:13:56.815Z,32.30
2022-12-01T18:16:30.989Z,33.93
2022-12-01T18:19:01.961Z,32.03
2022-12-01T18:21:30.860Z,36.67
2022-12-01T18:24:03.042Z,36.33
2022-12-01T18:26:34.690Z,37.10
2022-12-01T18:29:07.566Z,33.53
2022-12-01T18:31:37.019Z,37.10
2022-12-01T18:34:08.013Z,35.87
2022-12-01T18:36:41.296Z,39.97
2022-12-01T18:39:14.698Z,34.40
2022-12-01T18:41:44.814Z,33.17
2022-12-01T18:44:15.233Z,32.43
2022-12-01T18:46:43.841Z,34.90
2022-12-01T18:49:13.690Z,33.97
2022-12-01T18:51:42.962Z,37.40
2022-12-01T18:54:15.308Z,37.60
2022-12-01T18:56:46.512Z,34.20
2022-12-01T18:59:17.341Z,34.97
2022-12-01T19:01:48.532Z,40.27
2022-12-01T19:04:18.227Z,35.63
2022-12-01T19:06:47.685Z,38.40
2022-12-01T19:09:17.547Z,35.60
2022-12-01T19:11:48.036Z,35.93
2022-12-01T19:14:19.709Z,37.20
2022-12-01T19:16:49.500Z,39.90
2022-12-01T19:19:18.185Z,38.47
2022-12-01T19:21:47.104Z,37.00
2022-12-01T19:24:15.779Z,37.50
2022-12-01T19:26:44.396Z,42.63
2022-12-01T19:29:14.505Z,39.43
2022-12-01T19:31:43.206Z,37.53
2022-12-01T19:34:11.890Z,34.17
2022-12-01T19:36:40.459Z,40.10
2022-12-01T19:39:09.917Z,40.03
2022-12-01T19:41:39.221Z,38.87
2022-12-01T19:44:10.601Z,39.63
2022-12-01T19:46:43.728Z,36.90
2022-12-01T19:49:12.947Z,35.90
2022-12-01T19:51:42.023Z,36.43
2022-12-01T19:54:18.754Z,41.57
2022-12-01T19:56:53.239Z,39.00
2022-12-01T19:59:22.362Z,36.20
2022-12-01T20:02:03.020Z,40.30
2022-12-01T20:04:32.279Z,43.33
2022-12-01T20:07:05.144Z,38.30
2022-12-01T20:09:37.308Z,40.53
2022-12-01T20:12:06.916Z,35.10
2022-12-01T20:14:39.174Z,36.90
2022-12-01T20:17:21.158Z,37.07
2022-12-01T20:19:50.474Z,39.93
2022-12-01T20:22:25.178Z,37.33
2022-12-01T20:24:57.288Z,44.73
2022-12-01T20:27:34.626Z,41.57
2022-12-01T20:30:09.064Z,38.90
2022-12-01T20:32:41.309Z,44.23
2022-12-01T20:35:13.736Z,42.17
2022-12-01T20:37:43.389Z,40.80
2022-12-01T20:40:13.894Z,40.80
2022-12-01T20:42:43.572Z,39.60
2022-12-01T20:45:13.963Z,44.33
2022-12-01T20:47:44.337Z,43.00
2022-12-01T20:50:13.148Z,42.60
2022-12-01T20:52:42.546Z,43.43
2022-12-01T20:55:11.389Z,40.83
2022-12-01T20:57:40.172Z,43.50
2022-12-01T21:00:13.438Z,43.77
2022-12-01T21:02:43.729Z,42.30
2022-12-01T21:05:12.525Z,46.07
2022-12-01T21:07:41.560Z,60.07
2022-12-01T21:10:14.532Z,45.43
2022-12-01T21:13:06.884Z,44.97
2022-12-01T21:15:48.081Z,49.20
2022-12-01T21:18:24.803Z,43.97
2022-12-01T21:21:03.518Z,49.10
2022-12-01T21:23:33.231Z,47.00
2022-12-01T21:26:02.577Z,57.63
2022-12-01T21:28:31.502Z,50.87
2022-12-01T21:31:11.502Z,55.07
2022-12-01T21:33:43.271Z,54.37
2022-12-01T21:36:17.891Z,50.10
2022-12-01T21:38:49.488Z,55.53
2022-12-01T21:41:25.927Z,59.53
2022-12-01T21:44:01.459Z,54.50
2022-12-01T21:46:31.007Z,58.33
2022-12-01T21:49:02.680Z,55.23
2022-12-01T21:51:31.660Z,45.40
2022-12-01T21:54:03.270Z,52.70
2022-12-01T21:56:36.371Z,50.80
2022-12-01T21:59:20.036Z,58.07
2022-12-01T22:01:53.493Z,51.93
2022-12-01T22:04:27.091Z,53.27
2022-12-01T22:07:00.882Z,57.87
2022-12-01T22:09:32.903Z,47.10
2022-12-01T22:12:21.347Z,59.30
2022-12-01T22:14:50.240Z,48.50
2022-12-01T22:17:22.743Z,60.80
2022-12-01T22:19:58.967Z,53.83
2022-12-01T22:22:29.959Z,66.03
2022-12-01T22:25:02.880Z,61.93
2022-12-01T22:27:36.228Z,57.47
2022-12-01T22:30:19.680Z,60.97
2022-12-01T22:33:00.605Z,56.23
2022-12-01T22:35:36.354Z,64.20
2022-12-01T22:38:35.842Z,59.13
2022-12-01T22:41:07.791Z,61.30
2022-12-01T22:43:49.084Z,63.87
2022-12-01T22:46:40.477Z,59.47
2022-12-01T22:49:22.167Z,62.60
2022-12-01T22:51:53.961Z,66.57
2022-12-01T22:54:33.819Z,65.03
2022-12-01T22:57:31.148Z,67.13
2022-12-01T23:00:12.715Z,75.23
2022-12-01T23:02:42.128Z,61.77
2022-12-01T23:05:24.785Z,66.53
2022-12-01T23:08:04.009Z,63.50
2022-12-01T23:10:42.435Z,72.83
2022-12-01T23:13:17.872Z,62.70
2022-12-01T23:15:47.999Z,67.93
2022-12-01T23:18:20.843Z,66.13
2022-12-01T23:20:52.194Z,69.37
2022-12-01T23:23:27.428Z,66.13
2022-12-01T23:25:56.892Z,72.57
2022-12-01T23:28:26.335Z,59.67
2022-12-01T23:31:00.222Z,61.40
2022-12-01T23:33:32.462Z,51.23
2022-12-01T23:36:05.103Z,59.10
2022-12-01T23:38:39.873Z,59.10
2022-12-01T23:41:14.008Z,58.63
2022-12-01T23:43:45.777Z,57.27
2022-12-01T23:46:18.923Z,62.27
2022-12-01T23:48:52.171Z,51.00
2022-12-01T23:51:25.700Z,60.03
2022-12-01T23:53:58.248Z,58.47
2022-12-01T23:56:29.861Z,58.60
2022-12-01T23:59:02.104Z,47.13
